createdAt,value
2016-10-30T00:00:04.220Z,966.52
2016-10-30T00:01:04.239Z,966.56
2016-10-30T00:02:04.255Z,966.55
2016-10-30T00:03:04.273Z,966.58
2016-10-30T00:04:04.289Z,966.58
2016-10-30T00:05:04.306Z,966.54
2016-10-30T00:06:04.323Z,966.52
2016-10-30T00:07:04.341Z,966.5
2016-10-30T00:08:04.358Z,966.51
2016-10-30T00:09:04.374Z,966.48
2016-10-30T00:10:04.392Z,966.46
2016-10-30T00:11:04.408Z,966.52
2016-10-30T00:12:04.425Z,966.52
2016-10-30T00:13:04.443Z,966.53
2016-10-30T00:14:04.460Z,966.51
2016-10-30T00:15:04.480Z,966.51
2016-10-30T00:16:04.493Z,966.49
2016-10-30T00:17:04.511Z,966.49
2016-10-30T00:18:04.528Z,966.52
2016-10-30T00:19:04.544Z,966.48
2016-10-30T00:20:04.562Z,966.5
2016-10-30T00:21:04.579Z,966.49
2016-10-30T00:22:04.595Z,966.5
2016-10-30T00:23:04.612Z,966.49
2016-10-30T00:24:04.630Z,966.47
2016-10-30T00:25:04.648Z,966.52
2016-10-30T00:26:04.663Z,966.5
2016-10-30T00:27:04.680Z,966.49
2016-10-30T00:28:04.699Z,966.49
2016-10-30T00:29:04.714Z,966.44
2016-10-30T00:30:04.732Z,966.44
2016-10-30T00:31:04.750Z,966.51
2016-10-30T00:32:04.767Z,966.5
2016-10-30T00:33:04.782Z,966.47
2016-10-30T00:34:04.799Z,966.52
2016-10-30T00:35:04.817Z,966.54
2016-10-30T00:36:04.835Z,966.52
2016-10-30T00:37:04.849Z,966.55
2016-10-30T00:38:04.872Z,966.6
2016-10-30T00:39:04.884Z,966.57
2016-10-30T00:40:04.902Z,966.58
2016-10-30T00:41:04.919Z,966.6
2016-10-30T00:42:04.935Z,966.58
2016-10-30T00:43:04.951Z,966.57
2016-10-30T00:44:04.967Z,966.59
2016-10-30T00:45:04.985Z,966.58
2016-10-30T00:46:05.002Z,966.6
2016-10-30T00:47:05.019Z,966.56
2016-10-30T00:48:05.035Z,966.55
2016-10-30T00:49:05.052Z,966.56
2016-10-30T00:50:05.070Z,966.55
2016-10-30T00:51:05.085Z,966.54
2016-10-30T00:52:05.108Z,966.52
2016-10-30T00:53:05.118Z,966.52
2016-10-30T00:54:05.135Z,966.47
2016-10-30T00:55:05.152Z,966.46
2016-10-30T00:56:05.169Z,966.47
2016-10-30T00:57:05.187Z,966.42
2016-10-30T00:58:05.203Z,966.45
2016-10-30T00:59:05.219Z,966.44
2016-10-30T01:00:05.246Z,966.44
2016-10-30T01:01:05.253Z,966.4
2016-10-30T01:02:05.278Z,966.43
2016-10-30T01:03:05.285Z,966.39
2016-10-30T01:04:05.302Z,966.35
2016-10-30T01:05:05.319Z,966.34
2016-10-30T01:06:05.343Z,966.34
2016-10-30T01:07:05.352Z,966.31
2016-10-30T01:08:05.369Z,966.3
2016-10-30T01:09:05.385Z,966.27
2016-10-30T01:10:05.401Z,966.32
2016-10-30T01:11:05.418Z,966.31
2016-10-30T01:12:05.435Z,966.36
2016-10-30T01:13:05.450Z,966.39
2016-10-30T01:14:05.468Z,966.36
2016-10-30T01:15:05.485Z,966.33
2016-10-30T01:16:05.501Z,966.35
2016-10-30T01:17:05.517Z,966.35
2016-10-30T01:18:05.534Z,966.32
2016-10-30T01:19:05.550Z,966.27
2016-10-30T01:20:05.567Z,966.24
2016-10-30T01:21:05.583Z,966.19
2016-10-30T01:22:05.610Z,966.19
2016-10-30T01:23:05.616Z,966.16
2016-10-30T01:24:05.639Z,966.14
2016-10-30T01:25:05.649Z,966.14
2016-10-30T01:26:05.666Z,966.16
2016-10-30T01:27:05.683Z,966.17
2016-10-30T01:28:05.698Z,966.16
2016-10-30T01:29:05.734Z,966.19
2016-10-30T01:30:05.884Z,966.17
2016-10-30T01:31:05.748Z,966.14
2016-10-30T01:32:05.764Z,966.17
2016-10-30T01:33:05.781Z,966.19
2016-10-30T01:34:31.472Z,966.11
2016-10-30T01:35:05.812Z,966.15
2016-10-30T01:36:05.829Z,966.09
2016-10-30T01:37:05.846Z,966.08
2016-10-30T01:38:05.863Z,966.1
2016-10-30T01:39:05.879Z,966.04
2016-10-30T01:40:05.895Z,966.09
2016-10-30T01:41:05.912Z,966.07
2016-10-30T01:42:05.929Z,966.09
2016-10-30T01:43:05.944Z,966.09
2016-10-30T01:44:05.979Z,966.11
2016-10-30T01:45:05.977Z,966.07
2016-10-30T01:46:05.993Z,966.06
2016-10-30T01:47:06.010Z,966.06
2016-10-30T01:48:06.027Z,966.05
2016-10-30T01:49:06.044Z,966.11
2016-10-30T01:50:06.060Z,966.1
2016-10-30T01:51:06.079Z,966.13
2016-10-30T01:52:06.094Z,966.08
2016-10-30T01:53:06.110Z,966.08
2016-10-30T01:54:06.126Z,966.07
2016-10-30T01:55:06.143Z,966.06
2016-10-30T01:56:06.167Z,966.05
2016-10-30T01:57:06.175Z,966.09
2016-10-30T01:58:06.199Z,966.04
2016-10-30T01:59:06.209Z,966.08
2016-10-30T02:00:06.226Z,966.09
2016-10-30T02:01:06.241Z,966.06
2016-10-30T02:02:06.259Z,966.05
2016-10-30T02:03:06.275Z,966.03
2016-10-30T02:04:06.291Z,966.04
2016-10-30T02:05:06.458Z,966.06
2016-10-30T02:06:06.324Z,966.04
2016-10-30T02:07:06.341Z,966.04
2016-10-30T02:08:06.359Z,966.06
2016-10-30T02:09:06.373Z,966.08
2016-10-30T02:10:06.389Z,966.05
2016-10-30T02:11:06.406Z,966.05
2016-10-30T02:12:06.420Z,966.02
2016-10-30T02:13:06.439Z,966.01
2016-10-30T02:14:06.455Z,965.96
2016-10-30T02:15:06.470Z,965.94
2016-10-30T02:16:06.488Z,965.97
2016-10-30T02:17:06.502Z,965.94
2016-10-30T02:18:06.519Z,965.94
2016-10-30T02:19:06.535Z,965.89
2016-10-30T02:20:06.701Z,965.9
2016-10-30T02:21:06.582Z,965.88
2016-10-30T02:22:06.584Z,965.91
2016-10-30T02:23:06.600Z,965.86
2016-10-30T02:24:06.618Z,965.86
2016-10-30T02:25:06.633Z,965.81
2016-10-30T02:26:06.648Z,965.8
2016-10-30T02:27:06.665Z,965.82
2016-10-30T02:28:06.681Z,965.82
2016-10-30T02:29:06.699Z,965.81
2016-10-30T02:30:06.716Z,965.83
2016-10-30T02:31:06.731Z,965.87
2016-10-30T02:32:06.747Z,965.84
2016-10-30T02:33:06.767Z,965.84
2016-10-30T02:34:06.780Z,965.86
2016-10-30T02:35:06.946Z,965.83
2016-10-30T02:36:06.813Z,965.86
2016-10-30T02:37:06.828Z,965.84
2016-10-30T02:38:06.843Z,965.92
2016-10-30T02:39:06.861Z,965.9
2016-10-30T02:40:06.883Z,965.92
2016-10-30T02:41:06.893Z,965.9
2016-10-30T02:42:06.910Z,965.92
2016-10-30T02:43:06.930Z,965.91
2016-10-30T02:44:06.943Z,965.91
2016-10-30T02:45:06.958Z,965.85
2016-10-30T02:46:06.975Z,965.84
2016-10-30T02:47:06.990Z,965.87
2016-10-30T02:48:07.006Z,965.82
2016-10-30T02:49:07.023Z,965.88
2016-10-30T02:50:07.203Z,965.85
2016-10-30T02:51:07.056Z,965.83
2016-10-30T02:52:07.071Z,965.83
2016-10-30T02:53:07.086Z,965.82
2016-10-30T02:54:07.104Z,965.85
2016-10-30T02:55:07.120Z,965.79
2016-10-30T02:56:07.136Z,965.83
2016-10-30T02:57:07.152Z,965.83
2016-10-30T02:58:07.169Z,965.79
2016-10-30T02:59:07.183Z,965.78
2016-10-30T03:00:07.207Z,965.8
2016-10-30T03:01:07.215Z,965.74
2016-10-30T03:02:07.233Z,965.77
2016-10-30T03:03:07.250Z,965.75
2016-10-30T03:04:07.265Z,965.72
2016-10-30T03:05:07.285Z,965.68
2016-10-30T03:06:07.296Z,965.69
2016-10-30T03:07:07.312Z,965.69
2016-10-30T03:08:07.329Z,965.7
2016-10-30T03:09:07.346Z,965.7
2016-10-30T03:10:07.511Z,965.7
2016-10-30T03:11:07.377Z,965.68
2016-10-30T03:12:07.398Z,965.7
2016-10-30T03:13:07.411Z,965.7
2016-10-30T03:14:07.426Z,965.7
2016-10-30T03:15:07.442Z,965.72
2016-10-30T03:16:07.457Z,965.7
2016-10-30T03:17:07.474Z,965.72
2016-10-30T03:18:07.491Z,965.72
2016-10-30T03:19:07.507Z,965.74
2016-10-30T03:20:07.523Z,965.72
2016-10-30T03:21:07.538Z,965.72
2016-10-30T03:22:07.555Z,965.76
2016-10-30T03:23:07.572Z,965.75
2016-10-30T03:24:07.589Z,965.76
2016-10-30T03:25:07.603Z,965.79
2016-10-30T03:26:07.620Z,965.78
2016-10-30T03:27:07.639Z,965.77
2016-10-30T03:28:07.653Z,965.78
2016-10-30T03:29:07.667Z,965.78
2016-10-30T03:30:07.835Z,965.78
2016-10-30T03:31:07.700Z,965.79
2016-10-30T03:32:07.717Z,965.78
2016-10-30T03:33:07.733Z,965.73
2016-10-30T03:34:07.750Z,965.76
2016-10-30T03:35:07.767Z,965.77
2016-10-30T03:36:07.782Z,965.79
2016-10-30T03:37:07.799Z,965.78
2016-10-30T03:38:07.815Z,965.77
2016-10-30T03:39:07.831Z,965.8
2016-10-30T03:40:07.851Z,965.79
2016-10-30T03:41:07.865Z,965.78
2016-10-30T03:42:07.901Z,965.82
2016-10-30T03:43:07.896Z,965.85
2016-10-30T03:44:07.913Z,965.81
2016-10-30T03:45:08.082Z,965.82
2016-10-30T03:46:07.947Z,965.78
2016-10-30T03:47:07.961Z,965.76
2016-10-30T03:48:07.979Z,965.71
2016-10-30T03:49:07.995Z,965.74
2016-10-30T03:50:08.010Z,965.69
2016-10-30T03:51:08.028Z,965.67
2016-10-30T03:52:08.045Z,965.65
2016-10-30T03:53:08.062Z,965.65
2016-10-30T03:54:08.077Z,965.63
2016-10-30T03:55:08.094Z,965.64
2016-10-30T03:56:08.111Z,965.6
2016-10-30T03:57:08.128Z,965.59
2016-10-30T03:58:08.143Z,965.59
2016-10-30T03:59:08.160Z,965.57
2016-10-30T04:00:08.176Z,965.53
2016-10-30T04:01:08.193Z,965.55
2016-10-30T04:02:08.208Z,965.58
2016-10-30T04:03:08.227Z,965.59
2016-10-30T04:04:08.245Z,965.59
2016-10-30T04:05:08.258Z,965.61
2016-10-30T04:06:08.274Z,965.58
2016-10-30T04:07:08.292Z,965.57
2016-10-30T04:08:08.308Z,965.6
2016-10-30T04:09:08.326Z,965.6
2016-10-30T04:10:08.341Z,965.64
2016-10-30T04:11:08.370Z,965.64
2016-10-30T04:12:08.374Z,965.67
2016-10-30T04:13:08.392Z,965.67
2016-10-30T04:14:08.407Z,965.69
2016-10-30T04:15:08.424Z,965.7
2016-10-30T04:16:08.440Z,965.73
2016-10-30T04:17:08.458Z,965.73
2016-10-30T04:18:08.474Z,965.67
2016-10-30T04:19:08.493Z,965.62
2016-10-30T04:20:08.507Z,965.59
2016-10-30T04:21:08.524Z,965.63
2016-10-30T04:22:08.541Z,965.6
2016-10-30T04:23:08.557Z,965.58
2016-10-30T04:24:08.574Z,965.61
2016-10-30T04:25:08.591Z,965.58
2016-10-30T04:26:08.608Z,965.6
2016-10-30T04:27:08.624Z,965.63
2016-10-30T04:28:08.641Z,965.63
2016-10-30T04:29:08.659Z,965.58
2016-10-30T04:30:08.675Z,965.55
2016-10-30T04:31:08.690Z,965.51
2016-10-30T04:32:08.709Z,965.54
2016-10-30T04:33:08.727Z,965.54
2016-10-30T04:34:08.741Z,965.48
2016-10-30T04:35:08.758Z,965.49
2016-10-30T04:36:08.775Z,965.49
2016-10-30T04:37:08.792Z,965.49
2016-10-30T04:38:08.807Z,965.49
2016-10-30T04:39:08.826Z,965.51
2016-10-30T04:40:08.843Z,965.47
2016-10-30T04:41:08.872Z,965.49
2016-10-30T04:42:08.877Z,965.43
2016-10-30T04:43:08.893Z,965.48
2016-10-30T04:44:08.911Z,965.47
2016-10-30T04:45:08.926Z,965.48
2016-10-30T04:46:08.943Z,965.52
2016-10-30T04:47:08.960Z,965.49
2016-10-30T04:48:08.997Z,965.5
2016-10-30T04:49:08.993Z,965.5
2016-10-30T04:50:09.010Z,965.47
2016-10-30T04:51:09.028Z,965.46
2016-10-30T04:52:09.044Z,965.5
2016-10-30T04:53:09.061Z,965.44
2016-10-30T04:54:09.078Z,965.4
2016-10-30T04:55:09.094Z,965.41
2016-10-30T04:56:09.111Z,965.43
2016-10-30T04:57:09.128Z,965.43
2016-10-30T04:58:09.143Z,965.4
2016-10-30T04:59:09.163Z,965.41
2016-10-30T05:00:09.177Z,965.43
2016-10-30T05:01:09.195Z,965.42
2016-10-30T05:02:09.212Z,965.41
2016-10-30T05:03:09.230Z,965.44
2016-10-30T05:04:09.244Z,965.42
2016-10-30T05:05:09.260Z,965.39
2016-10-30T05:06:09.279Z,965.43
2016-10-30T05:07:09.295Z,965.44
2016-10-30T05:08:09.310Z,965.49
2016-10-30T05:09:09.330Z,965.54
2016-10-30T05:10:09.346Z,965.5
2016-10-30T05:11:09.362Z,965.54
2016-10-30T05:12:09.379Z,965.51
2016-10-30T05:13:09.395Z,965.47
2016-10-30T05:14:09.413Z,965.49
2016-10-30T05:15:09.429Z,965.48
2016-10-30T05:16:09.447Z,965.49
2016-10-30T05:17:09.464Z,965.48
2016-10-30T05:18:09.498Z,965.48
2016-10-30T05:19:09.496Z,965.48
2016-10-30T05:20:09.514Z,965.46
2016-10-30T05:21:09.530Z,965.49
2016-10-30T05:22:09.546Z,965.52
2016-10-30T05:23:09.562Z,965.51
2016-10-30T05:24:09.580Z,965.53
2016-10-30T05:25:09.597Z,965.52
2016-10-30T05:26:09.612Z,965.51
2016-10-30T05:27:09.630Z,965.5
2016-10-30T05:28:09.647Z,965.46
2016-10-30T05:29:09.662Z,965.49
2016-10-30T05:30:09.679Z,965.52
2016-10-30T05:31:09.697Z,965.55
2016-10-30T05:32:09.715Z,965.55
2016-10-30T05:33:09.729Z,965.5
2016-10-30T05:34:09.746Z,965.56
2016-10-30T05:35:09.763Z,965.58
2016-10-30T05:36:09.779Z,965.6
2016-10-30T05:37:09.797Z,965.62
2016-10-30T05:38:09.813Z,965.6
2016-10-30T05:39:09.830Z,965.57
2016-10-30T05:40:09.847Z,965.55
2016-10-30T05:41:09.863Z,965.53
2016-10-30T05:42:09.880Z,965.54
2016-10-30T05:43:09.896Z,965.52
2016-10-30T05:44:09.911Z,965.52
2016-10-30T05:45:09.929Z,965.54
2016-10-30T05:46:09.946Z,965.55
2016-10-30T05:47:09.969Z,965.54
2016-10-30T05:48:09.979Z,965.5
2016-10-30T05:49:09.997Z,965.51
2016-10-30T05:50:10.012Z,965.53
2016-10-30T05:51:10.028Z,965.51
2016-10-30T05:52:10.045Z,965.48
2016-10-30T05:53:10.062Z,965.5
2016-10-30T05:54:10.078Z,965.52
2016-10-30T05:55:10.095Z,965.47
2016-10-30T05:56:10.111Z,965.54
2016-10-30T05:57:10.128Z,965.5
2016-10-30T05:58:10.145Z,965.57
2016-10-30T05:59:10.161Z,965.55
2016-10-30T06:00:10.177Z,965.56
2016-10-30T06:01:10.194Z,965.57
2016-10-30T06:02:10.210Z,965.54
2016-10-30T06:03:10.226Z,965.58
2016-10-30T06:04:10.245Z,965.5
2016-10-30T06:05:10.260Z,965.51
2016-10-30T06:06:10.276Z,965.5
2016-10-30T06:07:10.295Z,965.53
2016-10-30T06:08:10.309Z,965.5
2016-10-30T06:09:10.327Z,965.51
2016-10-30T06:10:10.343Z,965.5
2016-10-30T06:11:10.359Z,965.49
2016-10-30T06:12:10.375Z,965.44
2016-10-30T06:13:10.390Z,965.47
2016-10-30T06:14:10.407Z,965.48
2016-10-30T06:15:10.425Z,965.51
2016-10-30T06:16:10.441Z,965.48
2016-10-30T06:17:10.472Z,965.49
2016-10-30T06:18:10.473Z,965.46
2016-10-30T06:19:10.490Z,965.45
2016-10-30T06:20:10.505Z,965.47
2016-10-30T06:21:10.522Z,965.47
2016-10-30T06:22:10.540Z,965.47
2016-10-30T06:23:10.556Z,965.48
2016-10-30T06:24:10.571Z,965.44
2016-10-30T06:25:10.590Z,965.54
2016-10-30T06:26:10.605Z,965.5
2016-10-30T06:27:10.621Z,965.57
2016-10-30T06:28:10.638Z,965.57
2016-10-30T06:29:10.655Z,965.56
2016-10-30T06:30:10.670Z,965.54
2016-10-30T06:31:10.685Z,965.58
2016-10-30T06:32:10.704Z,965.58
2016-10-30T06:33:10.719Z,965.62
2016-10-30T06:34:10.736Z,965.6
2016-10-30T06:35:10.753Z,965.61
2016-10-30T06:36:10.768Z,965.6
2016-10-30T06:37:10.784Z,965.58
2016-10-30T06:38:10.802Z,965.55
2016-10-30T06:39:10.818Z,965.56
2016-10-30T06:40:10.834Z,965.6
2016-10-30T06:41:10.850Z,965.56
2016-10-30T06:42:10.866Z,965.6
2016-10-30T06:43:10.884Z,965.61
2016-10-30T06:44:10.899Z,965.68
2016-10-30T06:45:10.916Z,965.68
2016-10-30T06:46:10.942Z,965.68
2016-10-30T06:47:10.948Z,965.67
2016-10-30T06:48:10.965Z,965.71
2016-10-30T06:49:10.981Z,965.67
2016-10-30T06:50:10.998Z,965.7
2016-10-30T06:51:11.013Z,965.65
2016-10-30T06:52:11.031Z,965.65
2016-10-30T06:53:11.139Z,965.67
2016-10-30T06:54:11.064Z,965.66
2016-10-30T06:55:11.080Z,965.68
2016-10-30T06:56:11.096Z,965.69
2016-10-30T06:57:11.112Z,965.7
2016-10-30T06:58:11.128Z,965.76
2016-10-30T06:59:11.145Z,965.75
2016-10-30T07:00:11.161Z,965.76
2016-10-30T07:01:11.177Z,965.79
2016-10-30T07:02:11.194Z,965.76
2016-10-30T07:03:11.211Z,965.77
2016-10-30T07:04:11.227Z,965.83
2016-10-30T07:05:11.243Z,965.79
2016-10-30T07:06:11.260Z,965.83
2016-10-30T07:07:11.276Z,965.83
2016-10-30T07:08:11.292Z,965.86
2016-10-30T07:09:11.309Z,965.84
2016-10-30T07:10:11.326Z,965.86
2016-10-30T07:11:11.342Z,965.88
2016-10-30T07:12:11.358Z,965.89
2016-10-30T07:13:11.375Z,965.89
2016-10-30T07:14:11.392Z,965.94
2016-10-30T07:15:11.407Z,965.94
2016-10-30T07:16:11.444Z,965.96
2016-10-30T07:17:11.441Z,965.92
2016-10-30T07:18:11.458Z,965.94
2016-10-30T07:19:11.473Z,965.97
2016-10-30T07:20:11.491Z,965.96
2016-10-30T07:21:11.508Z,965.92
2016-10-30T07:22:11.523Z,965.91
2016-10-30T07:23:11.541Z,965.87
2016-10-30T07:24:11.559Z,965.83
2016-10-30T07:25:11.576Z,965.86
2016-10-30T07:26:11.590Z,965.88
2016-10-30T07:27:11.608Z,965.91
2016-10-30T07:28:11.624Z,965.93
2016-10-30T07:29:11.641Z,965.95
2016-10-30T07:30:11.656Z,965.94
2016-10-30T07:31:11.675Z,965.91
2016-10-30T07:32:11.692Z,965.93
2016-10-30T07:33:11.708Z,965.9
2016-10-30T07:34:11.726Z,965.86
2016-10-30T07:35:11.741Z,965.86
2016-10-30T07:36:11.759Z,965.86
2016-10-30T07:37:11.776Z,965.89
2016-10-30T07:38:11.793Z,965.92
2016-10-30T07:39:11.810Z,965.95
2016-10-30T07:40:11.825Z,965.95
2016-10-30T07:41:11.842Z,966.01
2016-10-30T07:42:11.860Z,965.97
2016-10-30T07:43:11.876Z,965.94
2016-10-30T07:44:11.893Z,966
2016-10-30T07:45:11.914Z,965.94
2016-10-30T07:46:11.927Z,965.97
2016-10-30T07:47:11.945Z,965.91
2016-10-30T07:48:11.961Z,965.97
2016-10-30T07:49:11.977Z,965.94
2016-10-30T07:50:11.995Z,965.93
2016-10-30T07:51:12.011Z,965.92
2016-10-30T07:52:12.029Z,965.93
2016-10-30T07:53:12.045Z,965.92
2016-10-30T07:54:12.063Z,965.91
2016-10-30T07:55:12.079Z,965.92
2016-10-30T07:56:12.096Z,965.92
2016-10-30T07:57:12.113Z,965.92
2016-10-30T07:58:12.132Z,965.92
2016-10-30T07:59:12.147Z,965.87
2016-10-30T08:00:12.164Z,965.92
2016-10-30T08:01:12.183Z,965.91
2016-10-30T08:02:12.198Z,965.91
2016-10-30T08:03:12.215Z,965.88
2016-10-30T08:04:12.233Z,965.89
2016-10-30T08:05:12.250Z,965.89
2016-10-30T08:06:12.415Z,965.88
2016-10-30T08:07:12.283Z,965.95
2016-10-30T08:08:12.301Z,965.96
2016-10-30T08:09:12.320Z,966
2016-10-30T08:10:12.335Z,965.99
2016-10-30T08:11:12.353Z,966.01
2016-10-30T08:12:12.368Z,966.03
2016-10-30T08:13:12.387Z,966.02
2016-10-30T08:14:12.404Z,965.99
2016-10-30T08:15:12.421Z,965.96
2016-10-30T08:16:12.589Z,965.93
2016-10-30T08:17:12.455Z,965.89
2016-10-30T08:18:12.474Z,965.91
2016-10-30T08:19:12.490Z,965.88
2016-10-30T08:20:12.507Z,965.85
2016-10-30T08:21:12.524Z,965.9
2016-10-30T08:22:12.542Z,965.93
2016-10-30T08:23:12.558Z,965.93
2016-10-30T08:24:12.577Z,965.9
2016-10-30T08:25:12.595Z,965.91
2016-10-30T08:26:12.612Z,965.89
2016-10-30T08:27:12.630Z,965.89
2016-10-30T08:28:12.646Z,965.86
2016-10-30T08:29:12.665Z,965.85
2016-10-30T08:30:12.696Z,965.84
2016-10-30T08:31:12.702Z,965.84
2016-10-30T08:32:12.717Z,965.79
2016-10-30T08:33:12.737Z,965.8
2016-10-30T08:34:12.753Z,965.8
2016-10-30T08:35:12.769Z,965.77
2016-10-30T08:36:12.937Z,965.76
2016-10-30T08:37:12.823Z,965.73
2016-10-30T08:38:12.823Z,965.7
2016-10-30T08:39:12.840Z,965.69
2016-10-30T08:40:12.857Z,965.72
2016-10-30T08:41:12.875Z,965.71
2016-10-30T08:42:12.894Z,965.69
2016-10-30T08:43:12.910Z,965.72
2016-10-30T08:44:12.927Z,965.66
2016-10-30T08:45:12.945Z,965.67
2016-10-30T08:46:12.962Z,965.67
2016-10-30T08:47:12.980Z,965.73
2016-10-30T08:48:12.997Z,965.72
2016-10-30T08:49:13.015Z,965.68
2016-10-30T08:50:13.032Z,965.71
2016-10-30T08:51:13.054Z,965.68
2016-10-30T08:52:13.069Z,965.68
2016-10-30T08:53:13.088Z,965.67
2016-10-30T08:54:13.103Z,965.65
2016-10-30T08:55:13.122Z,965.61
2016-10-30T08:56:13.140Z,965.59
2016-10-30T08:57:13.157Z,965.56
2016-10-30T08:58:13.178Z,965.55
2016-10-30T08:59:13.229Z,965.56
2016-10-30T09:00:13.217Z,965.58
2016-10-30T09:01:13.227Z,965.61
2016-10-30T09:02:13.246Z,965.59
2016-10-30T09:03:13.265Z,965.59
2016-10-30T09:04:13.283Z,965.59
2016-10-30T09:05:13.300Z,965.6
2016-10-30T09:06:13.348Z,965.66
2016-10-30T09:07:13.339Z,965.67
2016-10-30T09:08:13.354Z,965.7
2016-10-30T09:09:13.372Z,965.71
2016-10-30T09:10:13.390Z,965.74
2016-10-30T09:11:13.408Z,965.76
2016-10-30T09:12:13.425Z,965.77
2016-10-30T09:13:13.444Z,965.81
2016-10-30T09:14:13.462Z,965.75
2016-10-30T09:15:13.480Z,965.74
2016-10-30T09:16:13.498Z,965.75
2016-10-30T09:17:13.516Z,965.72
2016-10-30T09:18:13.535Z,965.72
2016-10-30T09:19:13.552Z,965.68
2016-10-30T09:20:13.571Z,965.71
2016-10-30T09:21:13.741Z,965.72
2016-10-30T09:22:13.608Z,965.73
2016-10-30T09:23:13.625Z,965.73
2016-10-30T09:24:13.642Z,965.71
2016-10-30T09:25:13.661Z,965.68
2016-10-30T09:26:13.680Z,965.66
2016-10-30T09:27:13.696Z,965.66
2016-10-30T09:28:13.716Z,965.67
2016-10-30T09:29:13.734Z,965.67
2016-10-30T09:30:13.752Z,965.68
2016-10-30T09:31:13.921Z,965.64
2016-10-30T09:32:13.790Z,965.66
2016-10-30T09:33:13.810Z,965.65
2016-10-30T09:34:13.826Z,965.66
2016-10-30T09:35:13.844Z,965.65
2016-10-30T09:36:13.864Z,965.68
2016-10-30T09:37:13.886Z,965.69
2016-10-30T09:39:13.941Z,965.7
2016-10-30T09:40:13.939Z,965.63
2016-10-30T09:41:14.107Z,965.62
2016-10-30T09:42:13.975Z,965.64
2016-10-30T09:43:13.994Z,965.65
2016-10-30T09:44:14.013Z,965.66
2016-10-30T09:45:14.030Z,965.69
2016-10-30T09:46:14.049Z,965.67
2016-10-30T09:47:14.069Z,965.7
2016-10-30T09:48:14.087Z,965.72
2016-10-30T09:49:14.105Z,965.71
2016-10-30T09:50:14.124Z,965.7
2016-10-30T09:51:14.143Z,965.69
2016-10-30T09:52:14.168Z,965.69
2016-10-30T09:53:14.180Z,965.69
2016-10-30T09:54:14.201Z,965.69
2016-10-30T09:55:14.219Z,965.64
2016-10-30T09:56:14.237Z,965.6
2016-10-30T09:57:14.257Z,965.58
2016-10-30T09:58:14.276Z,965.6
2016-10-30T09:59:14.295Z,965.6
2016-10-30T10:00:14.314Z,965.61
2016-10-30T10:01:14.334Z,965.68
2016-10-30T10:02:14.355Z,965.63
2016-10-30T10:03:14.372Z,965.65
2016-10-30T10:04:14.392Z,965.64
2016-10-30T10:05:14.412Z,965.65
2016-10-30T10:06:14.433Z,965.59
2016-10-30T10:07:14.450Z,965.57
2016-10-30T10:08:14.471Z,965.56
2016-10-30T10:09:14.491Z,965.61
2016-10-30T10:10:14.508Z,965.6
2016-10-30T10:11:14.527Z,965.6
2016-10-30T10:12:14.549Z,965.55
2016-10-30T10:13:14.569Z,965.54
2016-10-30T10:14:14.588Z,965.51
2016-10-30T10:15:14.609Z,965.48
2016-10-30T10:16:14.629Z,965.49
2016-10-30T10:17:14.649Z,965.47
2016-10-30T10:18:14.668Z,965.5
2016-10-30T10:19:14.688Z,965.49
2016-10-30T10:20:14.709Z,965.47
2016-10-30T10:21:14.728Z,965.46
2016-10-30T10:22:14.752Z,965.47
2016-10-30T10:23:14.769Z,965.49
2016-10-30T10:24:14.789Z,965.5
2016-10-30T10:25:14.809Z,965.49
2016-10-30T10:26:14.830Z,965.51
2016-10-30T10:27:14.850Z,965.5
2016-10-30T10:28:14.871Z,965.52
2016-10-30T10:29:14.891Z,965.49
2016-10-30T10:30:14.912Z,965.5
2016-10-30T10:31:14.931Z,965.5
2016-10-30T10:32:14.952Z,965.46
2016-10-30T10:33:14.973Z,965.48
2016-10-30T10:34:14.994Z,965.48
2016-10-30T10:35:15.016Z,965.5
2016-10-30T10:36:15.035Z,965.45
2016-10-30T10:37:15.072Z,965.47
2016-10-30T10:38:15.078Z,965.5
2016-10-30T10:39:15.100Z,965.42
2016-10-30T10:40:15.121Z,965.42
2016-10-30T10:41:15.141Z,965.39
2016-10-30T10:42:15.162Z,965.31
2016-10-30T10:43:15.183Z,965.35
2016-10-30T10:44:15.205Z,965.33
2016-10-30T10:45:15.230Z,965.3
2016-10-30T10:46:15.250Z,965.34
2016-10-30T10:47:15.270Z,965.34
2016-10-30T10:48:15.291Z,965.35
2016-10-30T10:49:15.314Z,965.31
2016-10-30T10:50:15.338Z,965.26
2016-10-30T10:51:15.357Z,965.3
2016-10-30T10:52:15.379Z,965.28
2016-10-30T10:53:15.403Z,965.29
2016-10-30T10:54:15.424Z,965.29
2016-10-30T10:55:15.446Z,965.34
2016-10-30T10:56:15.469Z,965.37
2016-10-30T10:57:15.490Z,965.33
2016-10-30T10:58:15.512Z,965.29
2016-10-30T10:59:15.535Z,965.33
2016-10-30T11:00:15.570Z,965.29
2016-10-30T11:01:15.579Z,965.29
2016-10-30T11:02:15.601Z,965.28
2016-10-30T11:03:15.624Z,965.33
2016-10-30T11:04:15.647Z,965.3
2016-10-30T11:05:15.671Z,965.27
2016-10-30T11:06:15.694Z,965.23
2016-10-30T11:07:15.714Z,965.24
2016-10-30T11:08:15.744Z,965.22
2016-10-30T11:09:15.758Z,965.21
2016-10-30T11:10:15.783Z,965.13
2016-10-30T11:11:15.804Z,965.13
2016-10-30T11:12:15.825Z,965.16
2016-10-30T11:13:15.848Z,965.15
2016-10-30T11:14:15.871Z,965.16
2016-10-30T11:15:15.894Z,965.13
2016-10-30T11:16:15.916Z,965.09
2016-10-30T11:17:15.940Z,965.09
2016-10-30T11:18:15.962Z,965.04
2016-10-30T11:19:15.985Z,965.02
2016-10-30T11:20:16.008Z,964.96
2016-10-30T11:21:16.030Z,964.98
2016-10-30T11:22:16.053Z,964.89
2016-10-30T11:23:16.081Z,964.87
2016-10-30T11:24:16.098Z,964.84
2016-10-30T11:25:16.121Z,964.84
2016-10-30T11:26:16.145Z,964.87
2016-10-30T11:27:16.166Z,964.85
2016-10-30T11:28:16.189Z,964.88
2016-10-30T11:29:16.213Z,964.82
2016-10-30T11:30:16.235Z,964.87
2016-10-30T11:31:16.258Z,964.88
2016-10-30T11:32:16.281Z,964.83
2016-10-30T11:33:16.303Z,964.79
2016-10-30T11:34:16.327Z,964.83
2016-10-30T11:35:16.352Z,964.84
2016-10-30T11:36:16.374Z,964.86
2016-10-30T11:37:16.397Z,964.85
2016-10-30T11:38:16.419Z,964.85
2016-10-30T11:39:16.442Z,964.85
2016-10-30T11:40:16.467Z,964.82
2016-10-30T11:41:16.490Z,964.81
2016-10-30T11:42:16.511Z,964.78
2016-10-30T11:43:16.534Z,964.84
2016-10-30T11:44:16.559Z,964.85
2016-10-30T11:45:16.597Z,964.84
2016-10-30T11:46:16.618Z,964.85
2016-10-30T11:47:16.637Z,964.9
2016-10-30T11:48:16.651Z,964.89
2016-10-30T11:49:16.674Z,964.86
2016-10-30T11:50:16.698Z,964.85
2016-10-30T11:51:16.721Z,964.87
2016-10-30T11:52:16.745Z,964.85
2016-10-30T11:53:16.769Z,964.86
2016-10-30T11:54:16.795Z,964.82
2016-10-30T11:55:16.815Z,964.84
2016-10-30T11:56:16.838Z,964.83
2016-10-30T11:57:16.862Z,964.81
2016-10-30T11:58:16.886Z,964.86
2016-10-30T11:59:16.909Z,964.87
2016-10-30T12:00:16.932Z,964.85
2016-10-30T12:01:16.954Z,964.89
2016-10-30T12:02:17.606Z,964.85
2016-10-30T12:03:17.003Z,964.86
2016-10-30T12:04:17.026Z,964.91
2016-10-30T12:05:17.064Z,964.88
2016-10-30T12:06:17.073Z,964.84
2016-10-30T12:07:17.096Z,964.88
2016-10-30T12:08:17.178Z,964.81
2016-10-30T12:09:17.145Z,964.78
2016-10-30T12:10:17.172Z,964.77
2016-10-30T12:11:17.193Z,964.76
2016-10-30T12:12:17.601Z,964.74
2016-10-30T12:13:17.243Z,964.73
2016-10-30T12:14:17.265Z,964.73
2016-10-30T12:15:17.290Z,964.68
2016-10-30T12:16:17.313Z,964.7
2016-10-30T12:17:17.337Z,964.64
2016-10-30T12:18:17.368Z,964.7
2016-10-30T12:19:17.385Z,964.63
2016-10-30T12:20:17.407Z,964.64
2016-10-30T12:21:17.434Z,964.59
2016-10-30T12:22:17.456Z,964.59
2016-10-30T12:23:17.481Z,964.57
2016-10-30T12:24:17.519Z,964.54
2016-10-30T12:25:17.529Z,964.55
2016-10-30T12:26:17.553Z,964.53
2016-10-30T12:27:17.575Z,964.57
2016-10-30T12:28:17.600Z,964.51
2016-10-30T12:29:17.625Z,964.56
2016-10-30T12:30:17.648Z,964.55
2016-10-30T12:31:17.673Z,964.56
2016-10-30T12:32:17.700Z,964.57